Alamo, ND (58830)

6:15 PM CDT on July 30, 2016 (GMT -0500)
KNDALAMO3 | | Change Station

Elev 2090 ft 48.49 °N, 103.51 °W | Updated 1 minute ago

Clear
Clear
85.3 °F
Feels Like 85 °F
N
10.0
Wind Variable Wind from ESE
Gusts 16.0 mph

Today
High -- | Low -- °F
--% Chance of Precip.
Yesterday
High -- | Low -- °F
Precip. -- in
Pressure 29.82 in
Visibility 10.0 miles
Clouds Clear
Heat Index 85 °F
Dew Point 59 °F
Humidity 41%
Rainfall 0.00 in
Snow Depth Not available.
6:26 AM 9:33 PM
Waning Crescent, 10% visible
METAR KD50 302255Z AUTO 19004KT 10SM CLR 28/13 A2982 RMK AO2
Pressure 29.82 in
Visibility 10.0 miles
Clouds Clear
Heat Index 85 °F
Dew Point 59 °F
Humidity 41%
Rainfall 0.00 in
Snow Depth Not available.
6:26 AM 9:33 PM
Waning Crescent, 10% visible
METAR KD50 302255Z AUTO 19004KT 10SM CLR 28/13 A2982 RMK AO2

10-Day Weather Forecast

Almanac

Astronomy

Jul. 30, 2016 Rise Set
Actual Time
Civil Twilight
Nautical Twilight
Astronomical Twilight
Moon
Length of Visible Light
Length of Day
Tomorrow will be .
, % of the Moon is Illuminated

Today's Extremes

State Highs State Lows

Community

WunderPhotos

Upload Photos

1,928,674 photos uploaded!

WunderBlog® & News

Nearby

Air Quality

  Air Quality AQ Index Pollutant
Not available.

Snow Depth

Station Depth Elevation

Earthquake Activity

City Distance Mag. Time & Date
Minimum magnitude displayed is 2.5.

Coastal Water Temperatures

Place Temperature

Stations

Nearby Weather Stations

Station Location Temp. Windchill Dew Point Humidity Wind Precip. Elev Updated Type
                   

Watches & Warnings

There are currently no watches in effect.